createdAt,value
2019-03-19T00:01:25.682Z,84.80
2019-03-19T00:03:55.663Z,84.80
2019-03-19T00:06:24.503Z,84.80
2019-03-19T00:08:52.702Z,84.80
2019-03-19T00:11:20.874Z,84.90
2019-03-19T00:13:50.694Z,85.10
2019-03-19T00:16:19.800Z,85.10
2019-03-19T00:18:48.699Z,85.00
2019-03-19T00:21:20.093Z,85.10
2019-03-19T00:23:58.567Z,85.20
2019-03-19T00:26:27.902Z,85.30
2019-03-19T00:28:56.862Z,85.50
2019-03-19T00:31:25.291Z,85.60
2019-03-19T00:33:53.441Z,85.70
2019-03-19T00:36:22.193Z,85.70
2019-03-19T00:38:51.061Z,85.90
2019-03-19T00:41:17.609Z,85.90
2019-03-19T00:43:43.991Z,85.90
2019-03-19T00:46:10.368Z,85.90
2019-03-19T00:48:36.623Z,85.90
2019-03-19T00:51:03.004Z,85.80
2019-03-19T00:53:29.261Z,85.80
2019-03-19T00:55:55.519Z,85.70
2019-03-19T00:58:21.809Z,85.70
2019-03-19T01:00:48.182Z,85.60
2019-03-19T01:03:14.681Z,85.80
2019-03-19T01:05:40.952Z,85.80
2019-03-19T01:08:07.266Z,85.80
2019-03-19T01:10:33.537Z,85.80
2019-03-19T01:12:59.798Z,85.90
2019-03-19T01:15:26.114Z,86.00
2019-03-19T01:17:52.411Z,86.10
2019-03-19T01:20:18.699Z,86.30
2019-03-19T01:22:45.303Z,86.10
2019-03-19T01:25:11.872Z,86.00
2019-03-19T01:27:38.216Z,86.10
2019-03-19T01:30:09.011Z,86.20
2019-03-19T01:32:35.278Z,86.30
2019-03-19T01:35:03.805Z,86.40
2019-03-19T01:37:30.091Z,86.50
2019-03-19T01:39:56.362Z,86.60
2019-03-19T01:42:22.691Z,86.80
2019-03-19T01:44:48.953Z,86.90
2019-03-19T01:47:15.324Z,86.90
2019-03-19T01:49:41.580Z,87.00
2019-03-19T01:52:07.895Z,86.80
2019-03-19T01:54:34.261Z,86.90
2019-03-19T01:57:00.517Z,86.90
2019-03-19T01:59:26.776Z,86.90
2019-03-19T02:01:53.124Z,87.00
2019-03-19T02:04:19.387Z,87.00
2019-03-19T02:06:45.677Z,87.00
2019-03-19T02:09:11.963Z,87.40
2019-03-19T02:11:38.567Z,86.90
2019-03-19T02:14:05.029Z,86.90
2019-03-19T02:16:31.514Z,86.80
2019-03-19T02:18:57.785Z,86.70
2019-03-19T02:21:24.162Z,86.80
2019-03-19T02:23:50.445Z,86.30
2019-03-19T02:26:17.185Z,86.80
2019-03-19T02:28:43.568Z,86.90
2019-03-19T02:31:09.852Z,86.90
2019-03-19T02:33:36.167Z,87.10
2019-03-19T02:36:02.509Z,87.20
2019-03-19T02:38:28.781Z,87.10
2019-03-19T02:40:55.052Z,87.10
2019-03-19T02:43:22.882Z,87.10
2019-03-19T02:45:49.547Z,87.20
2019-03-19T02:48:15.846Z,87.10
2019-03-19T02:50:42.102Z,87.00
2019-03-19T02:53:08.427Z,87.30
2019-03-19T02:55:34.687Z,87.10
2019-03-19T02:58:01.100Z,87.20
2019-03-19T03:00:27.490Z,87.10
2019-03-19T03:02:53.801Z,87.10
2019-03-19T03:05:20.579Z,87.10
2019-03-19T03:07:47.103Z,87.00
2019-03-19T03:10:13.881Z,87.10
2019-03-19T03:12:40.335Z,87.00
2019-03-19T03:15:12.819Z,87.10
2019-03-19T03:17:39.202Z,87.30
2019-03-19T03:20:11.802Z,87.30
2019-03-19T03:22:38.029Z,88.10
2019-03-19T03:25:10.373Z,87.40
2019-03-19T03:27:36.992Z,87.40
2019-03-19T03:30:15.052Z,87.40
2019-03-19T03:32:41.461Z,87.50
2019-03-19T03:35:10.466Z,87.40
2019-03-19T03:37:36.825Z,87.60
2019-03-19T03:40:12.260Z,87.70
2019-03-19T03:42:38.536Z,87.80
2019-03-19T03:45:09.316Z,87.90
2019-03-19T03:47:35.580Z,88.00
2019-03-19T03:50:05.907Z,88.20
2019-03-19T03:52:32.185Z,88.50
2019-03-19T03:54:58.457Z,88.60
2019-03-19T03:57:24.715Z,88.80
2019-03-19T03:59:50.992Z,88.80
2019-03-19T04:02:17.251Z,89.00
2019-03-19T04:04:43.518Z,89.80
2019-03-19T04:07:09.853Z,89.20
2019-03-19T04:09:36.119Z,89.40
2019-03-19T04:12:02.383Z,89.50
2019-03-19T04:14:28.622Z,89.50
2019-03-19T04:16:54.887Z,89.50
2019-03-19T04:19:21.173Z,89.60
2019-03-19T04:21:47.642Z,89.70
2019-03-19T04:24:13.933Z,89.90
2019-03-19T04:26:40.379Z,89.80
2019-03-19T04:29:06.686Z,89.90
2019-03-19T04:31:32.988Z,89.90
2019-03-19T04:33:59.233Z,90.00
2019-03-19T04:36:25.500Z,90.00
2019-03-19T04:38:51.777Z,90.00
2019-03-19T04:41:18.068Z,89.90
2019-03-19T04:43:44.418Z,90.00
2019-03-19T04:46:10.671Z,89.90
2019-03-19T04:48:36.925Z,90.00
2019-03-19T04:51:03.297Z,90.00
2019-03-19T04:53:29.555Z,90.00
2019-03-19T04:55:55.859Z,90.20
2019-03-19T04:58:22.187Z,89.90
2019-03-19T05:00:48.456Z,89.80
2019-03-19T05:03:14.721Z,89.70
2019-03-19T05:05:41.110Z,89.40
2019-03-19T05:08:07.371Z,89.20
2019-03-19T05:10:33.680Z,88.90
2019-03-19T05:13:00.845Z,88.70
2019-03-19T05:15:29.149Z,88.30
2019-03-19T05:17:55.421Z,88.20
2019-03-19T05:20:21.695Z,88.10
2019-03-19T05:22:47.948Z,87.90
2019-03-19T05:25:14.238Z,87.80
2019-03-19T05:27:40.656Z,87.30
2019-03-19T05:30:18.561Z,87.30
2019-03-19T05:32:44.964Z,87.20
2019-03-19T05:35:11.275Z,87.30
2019-03-19T05:37:37.790Z,87.10
2019-03-19T05:40:13.075Z,87.00
2019-03-19T05:42:39.379Z,87.10
2019-03-19T05:45:12.631Z,87.00
2019-03-19T05:47:40.557Z,87.00
2019-03-19T05:50:17.695Z,86.80
2019-03-19T05:52:43.974Z,86.60
2019-03-19T05:55:10.435Z,86.60
2019-03-19T05:57:36.702Z,86.50
2019-03-19T06:00:14.035Z,86.50
2019-03-19T06:02:40.312Z,86.70
2019-03-19T06:05:10.142Z,86.60
2019-03-19T06:07:38.367Z,86.30
2019-03-19T06:10:10.527Z,86.00
2019-03-19T06:12:36.798Z,86.10
2019-03-19T06:15:08.269Z,86.00
2019-03-19T06:17:34.572Z,86.00
2019-03-19T06:20:00.867Z,85.80
2019-03-19T06:22:27.265Z,85.40
2019-03-19T06:24:53.540Z,85.30
2019-03-19T06:27:19.811Z,85.20
2019-03-19T06:29:46.064Z,85.00
2019-03-19T06:32:12.368Z,84.90
2019-03-19T06:34:38.645Z,84.70
2019-03-19T06:37:04.904Z,84.60
2019-03-19T06:39:31.274Z,84.30
2019-03-19T06:41:57.536Z,84.00
2019-03-19T06:44:23.791Z,83.60
2019-03-19T06:46:51.523Z,83.40
2019-03-19T06:49:17.795Z,83.20
2019-03-19T06:51:44.115Z,82.80
2019-03-19T06:54:10.398Z,82.50
2019-03-19T06:56:36.683Z,81.90
2019-03-19T06:59:03.181Z,81.80
2019-03-19T07:01:29.444Z,82.00
2019-03-19T07:03:55.708Z,82.10
2019-03-19T07:06:21.998Z,82.20
2019-03-19T07:08:48.267Z,81.90
2019-03-19T07:11:14.547Z,81.50
2019-03-19T07:13:42.001Z,80.90
2019-03-19T07:16:08.346Z,80.80
2019-03-19T07:18:34.715Z,81.70
2019-03-19T07:21:00.998Z,84.30
2019-03-19T07:23:27.248Z,83.90
2019-03-19T07:25:53.511Z,81.60
2019-03-19T07:28:22.222Z,78.90
2019-03-19T07:30:48.059Z,77.40
2019-03-19T07:33:14.465Z,76.80
2019-03-19T07:35:40.734Z,75.90
2019-03-19T07:38:07.069Z,75.00
2019-03-19T07:40:33.369Z,73.60
2019-03-19T07:42:59.798Z,71.50
2019-03-19T07:45:26.224Z,69.10
2019-03-19T07:47:52.560Z,68.00
2019-03-19T07:50:23.322Z,67.50
2019-03-19T07:52:49.716Z,67.00
2019-03-19T07:55:16.303Z,67.20
2019-03-19T07:57:42.561Z,67.40
2019-03-19T08:00:18.979Z,67.60
2019-03-19T08:02:45.447Z,68.80
2019-03-19T08:05:11.955Z,69.10
2019-03-19T08:07:38.412Z,66.90
2019-03-19T08:10:13.906Z,64.60
2019-03-19T08:12:40.308Z,64.10
2019-03-19T08:15:13.205Z,63.70
2019-03-19T08:17:39.580Z,62.50
2019-03-19T08:20:12.978Z,62.20
2019-03-19T08:22:39.268Z,62.00
2019-03-19T08:25:08.950Z,61.50
2019-03-19T08:27:35.408Z,61.40
2019-03-19T08:30:03.464Z,59.80
2019-03-19T08:32:30.718Z,60.00
2019-03-19T08:34:57.019Z,59.50
2019-03-19T08:37:23.285Z,58.40
2019-03-19T08:39:49.570Z,58.60
2019-03-19T08:42:15.867Z,59.00
2019-03-19T08:44:42.121Z,58.30
2019-03-19T08:47:08.486Z,57.90
2019-03-19T08:49:34.793Z,56.60
2019-03-19T08:52:01.044Z,55.10
2019-03-19T08:54:27.290Z,55.90
2019-03-19T08:56:53.604Z,55.40
2019-03-19T08:59:19.884Z,55.00
2019-03-19T09:01:47.394Z,54.10
2019-03-19T09:04:13.836Z,54.30
2019-03-19T09:06:40.135Z,55.10
2019-03-19T09:09:07.778Z,55.30
2019-03-19T09:11:34.045Z,54.80
2019-03-19T09:14:00.436Z,55.40
2019-03-19T09:16:26.815Z,55.90
2019-03-19T09:18:53.085Z,56.40
2019-03-19T09:21:19.363Z,57.60
2019-03-19T09:23:45.640Z,58.30
2019-03-19T09:26:11.898Z,59.40
2019-03-19T09:28:38.166Z,60.40
2019-03-19T09:31:04.500Z,60.60
2019-03-19T09:33:33.238Z,60.90
2019-03-19T09:36:02.036Z,63.20
2019-03-19T09:38:30.526Z,61.60
2019-03-19T09:40:58.790Z,61.90
2019-03-19T09:43:26.640Z,60.10
2019-03-19T09:45:56.149Z,61.00
2019-03-19T09:48:24.243Z,61.20
2019-03-19T09:50:52.970Z,61.60
2019-03-19T09:53:21.805Z,62.30
2019-03-19T09:55:49.765Z,61.10
2019-03-19T09:58:19.277Z,61.60
2019-03-19T10:00:47.388Z,60.90
2019-03-19T10:03:15.756Z,61.40
2019-03-19T10:05:46.657Z,62.80
2019-03-19T10:08:14.369Z,62.70
2019-03-19T10:10:45.474Z,63.70
2019-03-19T10:13:15.021Z,62.70
2019-03-19T10:15:41.524Z,62.20
2019-03-19T10:18:07.798Z,62.60
2019-03-19T10:20:34.068Z,61.60
2019-03-19T10:23:00.444Z,61.40
2019-03-19T10:25:26.687Z,62.40
2019-03-19T10:27:53.027Z,63.00
2019-03-19T10:30:20.746Z,61.90
2019-03-19T10:32:47.146Z,61.90
2019-03-19T10:35:13.813Z,62.60
2019-03-19T10:37:40.192Z,62.90
2019-03-19T10:40:09.986Z,61.80
2019-03-19T10:42:36.354Z,61.40
2019-03-19T10:45:12.401Z,61.30
2019-03-19T10:47:38.750Z,60.60
2019-03-19T10:50:10.777Z,59.30
2019-03-19T10:52:37.067Z,59.60
2019-03-19T10:55:03.915Z,58.70
2019-03-19T10:57:30.463Z,59.00
2019-03-19T11:00:09.771Z,60.00
2019-03-19T11:02:36.042Z,59.80
2019-03-19T11:05:06.908Z,59.60
2019-03-19T11:07:33.158Z,58.70
2019-03-19T11:09:59.483Z,58.80
2019-03-19T11:12:25.737Z,57.70
2019-03-19T11:14:52.158Z,56.70
2019-03-19T11:17:18.408Z,55.80
2019-03-19T11:19:44.652Z,54.60
2019-03-19T11:22:10.949Z,54.10
2019-03-19T11:24:37.300Z,52.50
2019-03-19T11:27:03.563Z,51.30
2019-03-19T11:29:29.832Z,51.10
2019-03-19T11:31:56.242Z,52.00
2019-03-19T11:34:22.508Z,51.90
2019-03-19T11:36:57.397Z,52.00
2019-03-19T11:39:17.089Z,51.80
2019-03-19T11:41:43.374Z,50.40
2019-03-19T11:44:09.675Z,48.70
2019-03-19T11:46:35.934Z,47.80
2019-03-19T11:49:03.047Z,46.00
2019-03-19T11:51:29.326Z,43.80
2019-03-19T11:53:55.574Z,44.40
2019-03-19T11:56:21.881Z,43.80
2019-03-19T11:58:48.198Z,47.90
2019-03-19T12:01:14.426Z,49.00
2019-03-19T12:03:45.563Z,50.00
2019-03-19T12:06:17.540Z,51.10
2019-03-19T12:08:47.511Z,51.60
2019-03-19T12:11:17.503Z,52.30
2019-03-19T12:13:46.652Z,51.00
2019-03-19T12:16:16.888Z,51.20
2019-03-19T12:18:45.565Z,51.80
2019-03-19T12:21:15.299Z,53.50
2019-03-19T12:23:44.026Z,53.60
2019-03-19T12:26:13.189Z,50.40
2019-03-19T12:28:42.438Z,50.50
2019-03-19T12:31:11.630Z,51.50
2019-03-19T12:33:41.080Z,52.90
2019-03-19T12:36:11.442Z,53.00
2019-03-19T12:38:39.720Z,53.70
2019-03-19T12:41:08.858Z,53.20
2019-03-19T12:43:38.256Z,53.20
2019-03-19T12:46:06.871Z,53.70
2019-03-19T12:48:34.957Z,52.60
2019-03-19T12:51:03.686Z,53.00
2019-03-19T12:53:31.716Z,52.80
2019-03-19T12:56:00.212Z,51.60
2019-03-19T12:58:28.419Z,50.40
2019-03-19T13:00:57.656Z,51.10
2019-03-19T13:03:25.802Z,50.50
2019-03-19T13:05:53.473Z,49.00
2019-03-19T13:08:21.326Z,46.90
2019-03-19T13:10:50.359Z,46.50
2019-03-19T13:13:20.709Z,46.50
2019-03-19T13:15:49.834Z,46.90
2019-03-19T13:18:19.126Z,48.10
2019-03-19T13:20:47.836Z,48.70
2019-03-19T13:23:16.292Z,48.20
2019-03-19T13:25:46.103Z,47.80
2019-03-19T13:28:13.257Z,47.80
2019-03-19T13:30:44.853Z,46.00
2019-03-19T13:33:07.970Z,44.20
2019-03-19T13:35:37.557Z,43.80
2019-03-19T13:38:04.305Z,45.10
2019-03-19T13:40:30.566Z,44.50
2019-03-19T13:42:56.880Z,43.00
2019-03-19T13:45:23.600Z,44.10
2019-03-19T13:47:49.992Z,45.50
2019-03-19T13:50:18.092Z,45.30
2019-03-19T13:52:44.568Z,46.40
2019-03-19T13:55:19.402Z,46.40
2019-03-19T13:57:46.100Z,46.50
2019-03-19T14:00:15.821Z,45.80
2019-03-19T14:02:43.836Z,46.50
2019-03-19T14:05:11.958Z,45.80
2019-03-19T14:07:38.512Z,45.90
2019-03-19T14:10:14.491Z,45.30
2019-03-19T14:12:43.769Z,45.40
2019-03-19T14:15:13.585Z,46.00
2019-03-19T14:17:39.968Z,46.60
2019-03-19T14:20:10.547Z,47.50
2019-03-19T14:22:37.062Z,47.00
2019-03-19T14:25:06.587Z,47.00
2019-03-19T14:27:32.818Z,46.90
2019-03-19T14:29:59.111Z,47.60
2019-03-19T14:32:25.372Z,47.40
2019-03-19T14:34:51.755Z,47.80
2019-03-19T14:37:18.024Z,48.00
2019-03-19T14:39:44.361Z,47.70
2019-03-19T14:42:10.715Z,47.30
2019-03-19T14:44:36.974Z,47.10
2019-03-19T14:47:03.372Z,47.00
2019-03-19T14:49:29.605Z,46.60
2019-03-19T14:51:56.070Z,46.40
2019-03-19T14:54:22.367Z,47.00
2019-03-19T14:56:48.992Z,43.90
2019-03-19T14:59:15.374Z,45.30
2019-03-19T15:01:41.640Z,46.60
2019-03-19T15:04:07.921Z,46.40
2019-03-19T15:06:34.384Z,46.20
2019-03-19T15:09:00.651Z,46.10
2019-03-19T15:11:26.927Z,46.10
2019-03-19T15:13:55.159Z,46.10
2019-03-19T15:16:21.553Z,45.30
2019-03-19T15:18:47.824Z,45.50
2019-03-19T15:21:14.300Z,45.90
2019-03-19T15:23:40.568Z,46.50
2019-03-19T15:26:06.817Z,46.80
2019-03-19T15:28:33.106Z,47.00
2019-03-19T15:30:59.489Z,47.50
2019-03-19T15:33:25.757Z,47.80
2019-03-19T15:35:52.189Z,47.70
2019-03-19T15:38:18.464Z,48.10
2019-03-19T15:40:44.748Z,48.80
2019-03-19T15:43:10.984Z,49.00
2019-03-19T15:45:37.359Z,49.00
2019-03-19T15:48:03.952Z,49.10
2019-03-19T15:50:30.250Z,49.80
2019-03-19T15:52:56.527Z,49.80
2019-03-19T15:55:23.099Z,48.60
2019-03-19T15:57:49.393Z,49.00
2019-03-19T16:00:17.255Z,49.30
2019-03-19T16:02:43.735Z,49.70
2019-03-19T16:05:11.628Z,50.30
2019-03-19T16:07:38.023Z,50.90
2019-03-19T16:10:08.130Z,51.20
2019-03-19T16:12:34.419Z,51.80
2019-03-19T16:15:00.794Z,52.10
2019-03-19T16:17:27.175Z,52.10
2019-03-19T16:19:53.442Z,52.30
2019-03-19T16:22:19.941Z,51.70
2019-03-19T16:24:46.328Z,52.00
2019-03-19T16:27:12.601Z,51.90
2019-03-19T16:29:38.895Z,52.10
2019-03-19T16:32:05.466Z,52.20
2019-03-19T16:34:31.739Z,52.40
2019-03-19T16:36:58.156Z,51.90
2019-03-19T16:39:24.456Z,51.40
2019-03-19T16:41:50.734Z,51.90
2019-03-19T16:44:17.040Z,51.80
2019-03-19T16:46:43.307Z,52.00
2019-03-19T16:49:09.706Z,52.40
2019-03-19T16:51:36.006Z,51.30
2019-03-19T16:54:02.602Z,50.80
2019-03-19T16:56:29.002Z,50.50
2019-03-19T16:58:55.308Z,50.20
2019-03-19T17:01:21.549Z,50.70
2019-03-19T17:03:47.911Z,51.00
2019-03-19T17:06:14.242Z,51.40
2019-03-19T17:08:40.528Z,51.50
2019-03-19T17:11:07.032Z,51.50
2019-03-19T17:13:33.342Z,51.50
2019-03-19T17:15:59.605Z,51.50
2019-03-19T17:18:25.903Z,51.60
2019-03-19T17:20:52.175Z,51.60
2019-03-19T17:23:18.425Z,51.70
2019-03-19T17:25:44.839Z,52.70
2019-03-19T17:28:11.095Z,52.40
2019-03-19T17:30:37.782Z,52.60
2019-03-19T17:33:04.173Z,52.90
2019-03-19T17:35:30.495Z,53.20
2019-03-19T17:37:56.777Z,52.30
2019-03-19T17:40:23.184Z,52.40
2019-03-19T17:42:49.483Z,52.90
2019-03-19T17:45:16.270Z,52.60
2019-03-19T17:47:42.962Z,52.90
2019-03-19T17:50:20.112Z,52.80
2019-03-19T17:52:49.517Z,53.20
2019-03-19T17:55:15.972Z,53.70
2019-03-19T17:57:42.276Z,54.60
2019-03-19T18:00:15.460Z,55.10
2019-03-19T18:02:41.786Z,54.90
2019-03-19T18:05:08.865Z,54.90
2019-03-19T18:07:35.126Z,54.90
2019-03-19T18:10:02.903Z,55.20
2019-03-19T18:12:29.194Z,55.20
2019-03-19T18:14:55.751Z,55.40
2019-03-19T18:17:22.019Z,54.00
2019-03-19T18:19:48.325Z,54.50
2019-03-19T18:22:16.814Z,55.20
2019-03-19T18:24:43.092Z,56.30
2019-03-19T18:27:09.645Z,56.50
2019-03-19T18:29:35.902Z,56.50
2019-03-19T18:32:02.372Z,56.10
2019-03-19T18:34:29.016Z,56.90
2019-03-19T18:36:55.306Z,57.50
2019-03-19T18:39:21.561Z,57.90
2019-03-19T18:41:50.188Z,58.60
2019-03-19T18:44:16.082Z,58.90
2019-03-19T18:46:42.329Z,59.30
2019-03-19T18:49:08.662Z,60.00
2019-03-19T18:51:36.854Z,60.70
2019-03-19T18:54:03.248Z,60.80
2019-03-19T18:56:29.640Z,61.40
2019-03-19T18:58:56.026Z,61.80
2019-03-19T19:01:22.341Z,62.30
2019-03-19T19:03:48.616Z,62.60
2019-03-19T19:06:14.896Z,62.90
2019-03-19T19:08:41.170Z,62.90
2019-03-19T19:11:07.488Z,63.30
2019-03-19T19:13:34.257Z,63.70
2019-03-19T19:16:00.548Z,64.10
2019-03-19T19:18:27.510Z,64.20
2019-03-19T19:20:54.833Z,64.50
2019-03-19T19:23:23.196Z,64.80
2019-03-19T19:25:50.363Z,64.90
2019-03-19T19:28:16.830Z,64.70
2019-03-19T19:30:44.554Z,64.90
2019-03-19T19:33:12.063Z,65.30
2019-03-19T19:35:40.443Z,65.20
2019-03-19T19:38:08.594Z,65.00
2019-03-19T19:40:36.485Z,65.30
2019-03-19T19:43:04.896Z,65.50
2019-03-19T19:45:33.399Z,65.70
2019-03-19T19:48:01.281Z,66.10
2019-03-19T19:50:29.169Z,66.70
2019-03-19T19:52:57.129Z,66.80
2019-03-19T19:55:25.154Z,67.10
2019-03-19T19:57:53.033Z,67.50
2019-03-19T20:00:23.667Z,67.60
2019-03-19T20:02:51.854Z,67.70
2019-03-19T20:05:19.875Z,67.90
2019-03-19T20:07:47.918Z,68.00
2019-03-19T20:10:24.349Z,68.40
2019-03-19T20:12:54.479Z,68.60
2019-03-19T20:15:22.355Z,68.90
2019-03-19T20:17:50.310Z,69.00
2019-03-19T20:20:24.490Z,69.00
2019-03-19T20:22:52.402Z,69.10
2019-03-19T20:25:21.737Z,69.30
2019-03-19T20:27:49.693Z,69.30
2019-03-19T20:30:19.745Z,69.50
2019-03-19T20:32:47.675Z,69.40
2019-03-19T20:35:15.906Z,69.50
2019-03-19T20:37:44.069Z,69.80
2019-03-19T20:40:16.506Z,69.90
2019-03-19T20:42:44.775Z,69.90
2019-03-19T20:45:18.831Z,70.10
2019-03-19T20:47:46.850Z,70.60
2019-03-19T20:50:29.396Z,71.00
2019-03-19T20:52:57.700Z,71.00
2019-03-19T20:55:25.591Z,70.90
2019-03-19T20:57:53.697Z,71.30
2019-03-19T21:00:21.586Z,71.20
2019-03-19T21:02:49.499Z,71.70
2019-03-19T21:05:18.598Z,72.00
2019-03-19T21:07:46.516Z,72.10
2019-03-19T21:10:25.064Z,72.20
2019-03-19T21:12:52.476Z,72.30
2019-03-19T21:15:24.776Z,72.20
2019-03-19T21:17:51.467Z,72.40
2019-03-19T21:20:18.126Z,72.70
2019-03-19T21:22:44.675Z,72.80
2019-03-19T21:25:11.197Z,73.20
2019-03-19T21:27:37.658Z,73.80
2019-03-19T21:30:19.870Z,73.70
2019-03-19T21:32:46.328Z,74.00
2019-03-19T21:35:12.795Z,73.90
2019-03-19T21:37:39.390Z,74.00
2019-03-19T21:40:10.939Z,74.10
2019-03-19T21:42:37.293Z,74.30
2019-03-19T21:45:11.613Z,74.40
2019-03-19T21:47:37.909Z,74.30
2019-03-19T21:50:12.307Z,74.40
2019-03-19T21:52:38.575Z,74.50
2019-03-19T21:55:10.057Z,74.70
2019-03-19T21:57:38.267Z,74.60
2019-03-19T22:00:13.142Z,74.60
2019-03-19T22:02:39.711Z,74.50
2019-03-19T22:05:07.598Z,74.30
2019-03-19T22:07:33.882Z,74.30
2019-03-19T22:10:00.136Z,74.40
2019-03-19T22:12:26.439Z,74.30
2019-03-19T22:14:52.725Z,74.40
2019-03-19T22:17:19.012Z,74.50
2019-03-19T22:19:45.333Z,74.50
2019-03-19T22:22:11.628Z,74.30
2019-03-19T22:24:37.889Z,74.30
2019-03-19T22:27:04.276Z,74.60
2019-03-19T22:29:30.662Z,74.60
2019-03-19T22:31:57.068Z,74.70
2019-03-19T22:34:23.331Z,74.90
2019-03-19T22:36:49.596Z,74.80
2019-03-19T22:39:15.863Z,74.70
2019-03-19T22:41:42.133Z,74.60
2019-03-19T22:44:08.506Z,74.60
2019-03-19T22:46:34.774Z,74.80
2019-03-19T22:49:01.107Z,75.00
2019-03-19T22:51:27.389Z,75.60
2019-03-19T22:53:53.672Z,74.80
2019-03-19T22:56:19.995Z,74.40
2019-03-19T22:58:46.260Z,75.00
2019-03-19T23:01:13.024Z,75.00
2019-03-19T23:03:39.388Z,75.00
2019-03-19T23:06:05.871Z,75.20
2019-03-19T23:08:32.136Z,74.90
2019-03-19T23:10:58.412Z,75.00
2019-03-19T23:13:24.673Z,75.30
2019-03-19T23:15:51.145Z,75.00
2019-03-19T23:18:17.408Z,74.80
2019-03-19T23:20:43.699Z,74.80
2019-03-19T23:23:10.118Z,74.70
2019-03-19T23:25:36.390Z,74.80
2019-03-19T23:28:03.160Z,75.60
2019-03-19T23:30:29.443Z,75.00
2019-03-19T23:32:55.705Z,75.00
2019-03-19T23:35:25.122Z,75.10
2019-03-19T23:37:52.450Z,75.30
2019-03-19T23:40:19.940Z,75.40
2019-03-19T23:42:47.528Z,75.40
2019-03-19T23:45:16.395Z,75.50
2019-03-19T23:47:42.890Z,75.50
2019-03-19T23:50:16.297Z,75.60
2019-03-19T23:52:42.774Z,75.50
2019-03-19T23:55:09.629Z,75.70
2019-03-19T23:57:35.940Z,75.90
